createdAt,value
2018-03-07T00:01:44.556Z,2.40
2018-03-07T00:12:07.459Z,2.30
2018-03-07T00:14:24.315Z,2.30
2018-03-07T00:22:13.865Z,2.20
2018-03-07T00:24:14.892Z,2.20
2018-03-07T00:26:30.208Z,2.10
2018-03-07T00:28:41.658Z,2.20
2018-03-07T00:33:12.201Z,2.10
2018-03-07T00:35:13.272Z,2.10
2018-03-07T00:37:14.347Z,2.00
2018-03-07T00:41:44.437Z,1.90
2018-03-07T00:46:11.818Z,1.90
2018-03-07T00:48:12.814Z,1.90
2018-03-07T00:50:41.401Z,1.90
2018-03-07T00:52:42.443Z,1.90
2018-03-07T00:54:50.896Z,2.00
2018-03-07T00:56:51.924Z,1.90
2018-03-07T00:58:56.519Z,1.90
2018-03-07T01:51:15.497Z,1.60
2018-03-07T01:57:55.892Z,1.60
2018-03-07T02:00:14.832Z,1.60
2018-03-07T02:02:16.075Z,1.60
2018-03-07T02:04:17.293Z,1.70
2018-03-07T02:06:29.561Z,1.60
2018-03-07T02:10:48.148Z,1.60
2018-03-07T02:12:49.880Z,1.70
2018-03-07T02:15:01.032Z,1.60
2018-03-07T02:17:02.247Z,1.60
2018-03-07T02:21:41.496Z,1.40
2018-03-07T02:23:42.528Z,1.50
2018-03-07T02:25:43.592Z,1.40
2018-03-07T02:27:53.650Z,1.40
2018-03-07T02:29:58.289Z,1.40
2018-03-07T02:32:12.220Z,1.50
2018-03-07T02:34:13.406Z,1.50
2018-03-07T02:38:49.517Z,1.50
2018-03-07T02:43:17.264Z,1.50
2018-03-07T02:45:19.289Z,1.50
2018-03-07T02:47:41.381Z,1.40
2018-03-07T02:51:59.633Z,1.40
2018-03-07T02:56:35.876Z,1.30
2018-03-07T02:58:45.362Z,1.30
2018-03-07T03:00:46.717Z,1.30
2018-03-07T03:02:47.962Z,1.30
2018-03-07T03:10:02.167Z,1.30
2018-03-07T03:12:07.123Z,1.40
2018-03-07T03:14:08.395Z,1.40
2018-03-07T03:16:12.355Z,1.40
2018-03-07T03:18:13.719Z,1.30
2018-03-07T03:20:14.836Z,1.30
2018-03-07T03:22:15.988Z,1.20
2018-03-07T03:24:17.316Z,1.20
2018-03-07T03:26:18.488Z,1.10
2018-03-07T03:28:30.860Z,1.10
2018-03-07T03:38:50.805Z,1.10
2018-03-07T03:40:53.722Z,1.10
2018-03-07T04:05:53.233Z,0.90
2018-03-07T05:37:13.029Z,0.90
2018-03-07T05:41:44.952Z,0.50
2018-03-07T05:44:08.722Z,0.50
2018-03-07T05:51:41.801Z,0.40
2018-03-07T05:53:50.052Z,0.40
2018-03-07T06:08:37.270Z,0.30
2018-03-07T06:39:51.157Z,0.60
2018-03-07T06:42:05.610Z,0.60
2018-03-07T06:52:12.545Z,0.90
2018-03-07T06:56:47.833Z,0.90
2018-03-07T06:59:04.605Z,1.00
2018-03-07T07:01:35.090Z,1.00
2018-03-07T07:03:36.445Z,1.10
2018-03-07T07:05:38.940Z,1.10
2018-03-07T07:07:45.648Z,1.20
2018-03-07T07:09:48.726Z,1.20
2018-03-07T07:12:10.148Z,1.30
2018-03-07T07:14:35.210Z,1.30
2018-03-07T07:16:39.330Z,1.40
2018-03-07T07:23:44.271Z,1.50
2018-03-07T07:25:45.987Z,1.60
2018-03-07T07:27:48.015Z,1.60
2018-03-07T07:29:52.383Z,1.60
2018-03-07T07:32:04.895Z,1.70
2018-03-07T07:34:12.248Z,1.70
2018-03-07T07:38:53.047Z,1.80
2018-03-07T07:54:43.584Z,2.20
2018-03-07T08:11:56.347Z,2.50
2018-03-07T08:16:31.431Z,2.60
2018-03-07T08:24:00.229Z,2.90
2018-03-07T08:26:29.124Z,3.00
2018-03-07T08:51:51.380Z,4.30
2018-03-07T08:53:59.512Z,4.40
2018-03-07T08:56:20.941Z,4.60
2018-03-07T09:00:48.194Z,5.10
2018-03-07T09:03:00.241Z,5.20
2018-03-07T09:07:29.123Z,5.30
2018-03-07T09:14:30.635Z,6.00
2018-03-07T09:45:00.268Z,6.20
2018-03-07T09:52:13.440Z,6.50
2018-03-07T10:41:59.523Z,7.80
2018-03-07T10:44:01.817Z,7.80
2018-03-07T10:46:12.028Z,8.10
2018-03-07T10:51:00.525Z,8.80
2018-03-07T10:55:30.638Z,9.70
2018-03-07T10:57:32.759Z,10.50
2018-03-07T10:59:35.168Z,10.30
2018-03-07T11:04:30.919Z,10.80
2018-03-07T11:49:44.688Z,13.50
2018-03-07T11:51:47.067Z,14.70
2018-03-07T12:11:24.505Z,13.50
2018-03-07T12:13:26.790Z,12.70
2018-03-07T12:30:40.522Z,11.20
2018-03-07T12:42:45.888Z,11.60
2018-03-07T12:44:49.113Z,11.40
2018-03-07T12:46:50.069Z,11.20
2018-03-07T12:48:51.028Z,11.20
2018-03-07T12:50:51.982Z,11.20
2018-03-07T12:52:52.978Z,11.10
2018-03-07T12:55:11.888Z,10.80
2018-03-07T12:59:43.738Z,10.30
2018-03-07T13:02:11.294Z,10.10
2018-03-07T13:04:12.276Z,10.20
2018-03-07T13:06:13.241Z,10.50
2018-03-07T13:10:56.453Z,10.60
2018-03-07T13:12:57.422Z,10.70
2018-03-07T16:21:03.516Z,10.10
2018-03-07T16:23:04.623Z,8.20
2018-03-07T16:25:06.407Z,8.10
2018-03-07T16:27:07.714Z,7.90
2018-03-07T16:29:09.318Z,7.80
2018-03-07T16:31:11.262Z,7.60
2018-03-07T16:33:16.337Z,7.40
2018-03-07T16:35:25.628Z,7.30
2018-03-07T16:39:56.482Z,7.10
2018-03-07T16:41:57.918Z,7.00
2018-03-07T16:44:01.150Z,6.80
2018-03-07T16:46:02.402Z,6.70
2018-03-07T16:48:08.797Z,6.60
2018-03-07T16:52:20.830Z,6.40
2018-03-07T16:56:56.090Z,6.30
2018-03-07T16:59:07.047Z,6.10
2018-03-07T17:01:16.285Z,6.00
2018-03-07T17:05:35.181Z,5.90
2018-03-07T17:07:39.198Z,5.90
2018-03-07T17:09:40.212Z,5.80
2018-03-07T17:11:41.185Z,5.70
2018-03-07T17:13:42.188Z,5.60
2018-03-07T17:15:43.470Z,5.60
2018-03-07T17:17:44.460Z,5.50
2018-03-07T17:19:45.416Z,5.50
2018-03-07T17:21:46.353Z,5.50
2018-03-07T17:23:47.301Z,5.40
2018-03-07T17:25:48.268Z,5.30
2018-03-07T17:27:49.344Z,5.20
2018-03-07T17:29:50.687Z,5.20
2018-03-07T17:31:53.389Z,5.20
2018-03-07T17:33:54.448Z,5.20
2018-03-07T17:36:00.236Z,5.20
2018-03-07T17:38:01.426Z,5.10
2018-03-07T17:40:02.913Z,5.10
2018-03-07T17:42:15.506Z,5.10
2018-03-07T17:44:17.544Z,5.10
2018-03-07T17:46:19.763Z,5.10
2018-03-07T17:48:24.490Z,5.10
2018-03-07T17:50:25.542Z,5.10
2018-03-07T17:52:26.638Z,5.00
2018-03-07T17:54:27.812Z,4.90
2018-03-07T17:56:28.826Z,4.90
2018-03-07T17:58:30.677Z,4.80
2018-03-07T18:00:39.170Z,4.80
2018-03-07T18:02:40.316Z,4.80
2018-03-07T18:04:44.181Z,4.80
2018-03-07T18:06:46.877Z,4.80
2018-03-07T18:08:48.801Z,4.70
2018-03-07T18:10:52.070Z,4.60
2018-03-07T18:12:58.214Z,4.50
2018-03-07T18:14:59.332Z,4.50
2018-03-07T18:17:00.319Z,4.40
2018-03-07T18:19:01.312Z,4.40
2018-03-07T18:34:22.625Z,4.10
2018-03-07T18:36:31.949Z,4.10
2018-03-07T18:38:52.822Z,4.00
2018-03-07T18:40:56.041Z,4.10
2018-03-07T18:42:58.300Z,4.20
2018-03-07T18:45:01.924Z,4.20
2018-03-07T18:47:05.581Z,4.30
2018-03-07T18:49:07.786Z,4.30
2018-03-07T18:51:09.255Z,4.30
2018-03-07T18:53:10.313Z,4.40
2018-03-07T18:55:11.344Z,4.40
2018-03-07T18:57:16.724Z,4.40
2018-03-07T19:01:36.814Z,4.30
2018-03-07T19:03:37.899Z,4.20
2018-03-07T19:05:38.954Z,4.30
2018-03-07T19:07:39.961Z,4.40
2018-03-07T19:09:40.948Z,4.30
2018-03-07T19:11:41.932Z,4.30
2018-03-07T19:13:42.918Z,4.30
2018-03-07T19:15:58.917Z,4.30
2018-03-07T19:18:00.059Z,4.30
2018-03-07T19:22:44.684Z,4.30
2018-03-07T19:24:45.703Z,4.40
2018-03-07T19:26:56.316Z,4.30
2018-03-07T19:29:14.793Z,4.30
2018-03-07T19:31:30.493Z,4.30
2018-03-07T19:33:31.860Z,4.30
2018-03-07T19:35:32.974Z,4.40
2018-03-07T19:37:43.648Z,4.50
2018-03-07T19:39:44.670Z,4.40
2018-03-07T19:44:14.436Z,4.40
2018-03-07T19:53:59.545Z,4.40
2018-03-07T19:56:00.914Z,4.40
2018-03-07T20:00:34.314Z,4.40
2018-03-07T20:02:35.489Z,4.40
2018-03-07T20:04:36.719Z,4.40
2018-03-07T20:11:34.512Z,4.50
2018-03-07T20:18:32.943Z,4.50
2018-03-07T20:20:33.989Z,4.50
2018-03-07T20:25:01.888Z,4.50
2018-03-07T20:27:21.315Z,4.50
2018-03-07T20:31:50.467Z,4.50
2018-03-07T20:33:52.179Z,4.30
2018-03-07T20:35:53.333Z,4.30
2018-03-07T20:37:54.324Z,4.30
2018-03-07T20:40:24.933Z,4.30
2018-03-07T20:42:26.051Z,4.30
2018-03-07T20:48:54.766Z,4.30
2018-03-07T20:51:00.854Z,4.40
2018-03-07T20:53:01.988Z,4.30
2018-03-07T20:55:20.566Z,4.30
2018-03-07T20:57:21.586Z,4.30
2018-03-07T20:59:22.536Z,4.30
2018-03-07T21:01:26.359Z,4.30
2018-03-07T21:03:30.050Z,4.30
2018-03-07T21:05:31.158Z,4.30
2018-03-07T21:07:32.154Z,4.20
2018-03-07T21:09:33.144Z,4.20
2018-03-07T21:11:34.094Z,4.20
2018-03-07T21:13:35.103Z,4.20
2018-03-07T21:15:36.055Z,3.90
2018-03-07T21:17:38.651Z,3.80
2018-03-07T21:19:39.814Z,3.80
2018-03-07T21:21:43.208Z,3.90
2018-03-07T21:23:48.072Z,3.90
2018-03-07T21:25:51.839Z,3.90
2018-03-07T21:27:57.804Z,4.00
2018-03-07T21:32:35.653Z,4.00
2018-03-07T21:34:36.641Z,3.90
2018-03-07T21:36:37.649Z,3.90
2018-03-07T21:41:06.997Z,3.80
2018-03-07T21:43:17.786Z,3.80
2018-03-07T21:45:18.945Z,3.70
2018-03-07T21:47:24.193Z,3.70
2018-03-07T21:49:25.303Z,3.60
2018-03-07T21:51:27.968Z,3.70
2018-03-07T21:53:33.527Z,3.80
2018-03-07T21:55:34.586Z,3.80
2018-03-07T21:57:35.561Z,3.80
2018-03-07T21:59:36.558Z,3.90
2018-03-07T22:01:49.985Z,3.90
2018-03-07T22:03:51.202Z,3.90
2018-03-07T22:05:52.200Z,3.90
2018-03-07T22:07:53.191Z,3.90
2018-03-07T22:09:56.006Z,3.90
2018-03-07T22:11:57.071Z,3.90
2018-03-07T22:13:58.103Z,3.90
2018-03-07T22:15:59.847Z,4.00
2018-03-07T22:18:00.894Z,4.00
2018-03-07T22:20:01.903Z,4.00
2018-03-07T22:22:12.616Z,3.90
2018-03-07T22:25:51.659Z,3.90
2018-03-07T22:27:52.753Z,3.80
2018-03-07T22:29:58.594Z,3.60
2018-03-07T22:31:59.596Z,3.60
2018-03-07T22:34:15.975Z,3.60
2018-03-07T22:36:17.147Z,3.60
2018-03-07T22:38:19.264Z,3.60
2018-03-07T22:40:20.854Z,3.60
2018-03-07T22:42:21.885Z,3.60
2018-03-07T22:44:24.334Z,3.60
2018-03-07T22:46:25.764Z,3.60
2018-03-07T22:48:27.715Z,3.70
2018-03-07T22:50:28.699Z,3.70
2018-03-07T22:52:30.474Z,3.70
2018-03-07T22:54:31.519Z,3.70
2018-03-07T22:56:33.516Z,3.80
2018-03-07T22:58:35.255Z,3.80
2018-03-07T23:00:51.245Z,3.90
2018-03-07T23:02:52.237Z,3.90
2018-03-07T23:04:53.215Z,3.90
2018-03-07T23:06:54.461Z,3.90
2018-03-07T23:08:55.690Z,4.00
2018-03-07T23:10:58.167Z,4.00
2018-03-07T23:12:59.667Z,4.00
2018-03-07T23:15:01.062Z,4.00
2018-03-07T23:17:02.092Z,4.00
2018-03-07T23:19:04.055Z,4.00
2018-03-07T23:21:05.070Z,3.90
2018-03-07T23:23:06.019Z,4.00
2018-03-07T23:25:06.982Z,4.00
2018-03-07T23:27:08.482Z,3.90
2018-03-07T23:29:10.263Z,4.00
2018-03-07T23:31:11.368Z,4.00
2018-03-07T23:33:14.047Z,4.00
2018-03-07T23:35:36.980Z,3.90
2018-03-07T23:37:38.634Z,4.00
2018-03-07T23:39:39.641Z,3.90
2018-03-07T23:41:41.595Z,4.00
2018-03-07T23:43:42.636Z,4.00
2018-03-07T23:45:57.944Z,4.00
2018-03-07T23:47:58.935Z,4.00
2018-03-07T23:50:19.615Z,4.00
2018-03-07T23:52:20.940Z,4.00
2018-03-07T23:54:21.924Z,4.00
2018-03-07T23:56:22.918Z,4.00
2018-03-07T23:58:24.669Z,4.00
